sensor_id;sensor_type;location;lat;lon;timestamp;P1;P2;P0
72023;PMS5003;59889;50.700;5.440;2024-02-28T00:02:16;8;8;
72023;PMS5003;59889;50.700;5.440;2024-02-28T00:04:41;7;6;
72023;PMS5003;59889;50.700;5.440;2024-02-28T00:07:07;6;5;
72023;PMS5003;59889;50.700;5.440;2024-02-28T00:09:32;7;6;
72023;PMS5003;59889;50.700;5.440;2024-02-28T00:11:57;6;6;
72023;PMS5003;59889;50.700;5.440;2024-02-28T00:14:22;9;9;
72023;PMS5003;59889;50.700;5.440;2024-02-28T00:16:47;9;8;
72023;PMS5003;59889;50.700;5.440;2024-02-28T00:19:12;9;7;
72023;PMS5003;59889;50.700;5.440;2024-02-28T00:21:37;10;8;
72023;PMS5003;59889;50.700;5.440;2024-02-28T00:24:03;9;7;
72023;PMS5003;59889;50.700;5.440;2024-02-28T00:26:28;8;7;
72023;PMS5003;59889;50.700;5.440;2024-02-28T00:28:53;8;8;
72023;PMS5003;59889;50.700;5.440;2024-02-28T00:31:18;6;5;
72023;PMS5003;59889;50.700;5.440;2024-02-28T00:33:43;7;6;
72023;PMS5003;59889;50.700;5.440;2024-02-28T00:36:08;7;6;
72023;PMS5003;59889;50.700;5.440;2024-02-28T00:38:33;7;6;
72023;PMS5003;59889;50.700;5.440;2024-02-28T00:40:58;7;7;
72023;PMS5003;59889;50.700;5.440;2024-02-28T00:43:23;8;7;
72023;PMS5003;59889;50.700;5.440;2024-02-28T00:45:49;10;8;
72023;PMS5003;59889;50.700;5.440;2024-02-28T00:48:14;8;8;
72023;PMS5003;59889;50.700;5.440;2024-02-28T00:50:39;8;6;
72023;PMS5003;59889;50.700;5.440;2024-02-28T00:53:04;7;7;
72023;PMS5003;59889;50.700;5.440;2024-02-28T00:55:29;8;8;
72023;PMS5003;59889;50.700;5.440;2024-02-28T00:57:54;8;8;
72023;PMS5003;59889;50.700;5.440;2024-02-28T01:00:19;7;5;
72023;PMS5003;59889;50.700;5.440;2024-02-28T01:02:44;8;6;
72023;PMS5003;59889;50.700;5.440;2024-02-28T01:05:09;6;5;
72023;PMS5003;59889;50.700;5.440;2024-02-28T01:07:34;7;6;
72023;PMS5003;59889;50.700;5.440;2024-02-28T01:09:59;7;7;
72023;PMS5003;59889;50.700;5.440;2024-02-28T01:12:24;6;6;
72023;PMS5003;59889;50.700;5.440;2024-02-28T01:14:49;6;6;
72023;PMS5003;59889;50.700;5.440;2024-02-28T01:17:14;6;6;
72023;PMS5003;59889;50.700;5.440;2024-02-28T01:19:39;7;7;
72023;PMS5003;59889;50.700;5.440;2024-02-28T01:22:04;8;7;
72023;PMS5003;59889;50.700;5.440;2024-02-28T01:24:29;6;6;
72023;PMS5003;59889;50.700;5.440;2024-02-28T01:26:54;6;5;
72023;PMS5003;59889;50.700;5.440;2024-02-28T01:29:19;6;6;
72023;PMS5003;59889;50.700;5.440;2024-02-28T01:31:44;7;7;
72023;PMS5003;59889;50.700;5.440;2024-02-28T01:34:10;6;5;
72023;PMS5003;59889;50.700;5.440;2024-02-28T01:36:35;8;8;
72023;PMS5003;59889;50.700;5.440;2024-02-28T01:39:00;6;6;
72023;PMS5003;59889;50.700;5.440;2024-02-28T01:41:25;7;6;
72023;PMS5003;59889;50.700;5.440;2024-02-28T01:43:50;5;5;
72023;PMS5003;59889;50.700;5.440;2024-02-28T01:46:20;6;6;
72023;PMS5003;59889;50.700;5.440;2024-02-28T01:48:40;8;6;
72023;PMS5003;59889;50.700;5.440;2024-02-28T01:51:05;7;7;
72023;PMS5003;59889;50.700;5.440;2024-02-28T01:53:30;6;6;
72023;PMS5003;59889;50.700;5.440;2024-02-28T01:55:55;6;5;
72023;PMS5003;59889;50.700;5.440;2024-02-28T01:58:20;6;6;
72023;PMS5003;59889;50.700;5.440;2024-02-28T02:00:45;4;4;
72023;PMS5003;59889;50.700;5.440;2024-02-28T02:03:10;10;9;
72023;PMS5003;59889;50.700;5.440;2024-02-28T02:05:36;7;7;
72023;PMS5003;59889;50.700;5.440;2024-02-28T02:08:01;7;7;
72023;PMS5003;59889;50.700;5.440;2024-02-28T02:10:26;6;5;
72023;PMS5003;59889;50.700;5.440;2024-02-28T02:12:51;7;7;
72023;PMS5003;59889;50.700;5.440;2024-02-28T02:15:16;7;6;
72023;PMS5003;59889;50.700;5.440;2024-02-28T02:17:41;7;7;
72023;PMS5003;59889;50.700;5.440;2024-02-28T02:20:06;6;6;
72023;PMS5003;59889;50.700;5.440;2024-02-28T02:22:32;7;7;
72023;PMS5003;59889;50.700;5.440;2024-02-28T02:24:56;5;5;
72023;PMS5003;59889;50.700;5.440;2024-02-28T02:27:23;8;7;
72023;PMS5003;59889;50.700;5.440;2024-02-28T02:29:46;5;5;
72023;PMS5003;59889;50.700;5.440;2024-02-28T02:32:12;5;4;
72023;PMS5003;59889;50.700;5.440;2024-02-28T02:34:36;10;9;
72023;PMS5003;59889;50.700;5.440;2024-02-28T02:37:01;7;6;
72023;PMS5003;59889;50.700;5.440;2024-02-28T02:39:26;7;7;
72023;PMS5003;59889;50.700;5.440;2024-02-28T02:41:51;6;6;
72023;PMS5003;59889;50.700;5.440;2024-02-28T02:44:16;9;8;
72023;PMS5003;59889;50.700;5.440;2024-02-28T02:46:42;6;6;
72023;PMS5003;59889;50.700;5.440;2024-02-28T02:49:06;6;6;
72023;PMS5003;59889;50.700;5.440;2024-02-28T02:51:31;7;6;
72023;PMS5003;59889;50.700;5.440;2024-02-28T02:53:56;5;5;
72023;PMS5003;59889;50.700;5.440;2024-02-28T02:56:21;5;5;
72023;PMS5003;59889;50.700;5.440;2024-02-28T02:58:48;6;6;
72023;PMS5003;59889;50.700;5.440;2024-02-28T03:01:12;8;6;
72023;PMS5003;59889;50.700;5.440;2024-02-28T03:03:37;7;5;
72023;PMS5003;59889;50.700;5.440;2024-02-28T03:06:02;6;6;
72023;PMS5003;59889;50.700;5.440;2024-02-28T03:08:27;8;6;
72023;PMS5003;59889;50.700;5.440;2024-02-28T03:10:53;6;6;
72023;PMS5003;59889;50.700;5.440;2024-02-28T03:13:17;8;8;
72023;PMS5003;59889;50.700;5.440;2024-02-28T03:15:42;8;7;
72023;PMS5003;59889;50.700;5.440;2024-02-28T03:18:07;7;7;
72023;PMS5003;59889;50.700;5.440;2024-02-28T03:20:32;6;6;
72023;PMS5003;59889;50.700;5.440;2024-02-28T03:22:57;6;5;
72023;PMS5003;59889;50.700;5.440;2024-02-28T03:25:22;5;5;
72023;PMS5003;59889;50.700;5.440;2024-02-28T03:27:47;6;6;
72023;PMS5003;59889;50.700;5.440;2024-02-28T03:30:12;7;7;
72023;PMS5003;59889;50.700;5.440;2024-02-28T03:32:37;6;6;
72023;PMS5003;59889;50.700;5.440;2024-02-28T03:35:04;6;6;
72023;PMS5003;59889;50.700;5.440;2024-02-28T03:37:27;5;5;
72023;PMS5003;59889;50.700;5.440;2024-02-28T03:39:53;7;6;
72023;PMS5003;59889;50.700;5.440;2024-02-28T03:42:18;6;6;
72023;PMS5003;59889;50.700;5.440;2024-02-28T03:44:43;7;7;
72023;PMS5003;59889;50.700;5.440;2024-02-28T03:47:08;7;6;
72023;PMS5003;59889;50.700;5.440;2024-02-28T03:49:33;7;6;
72023;PMS5003;59889;50.700;5.440;2024-02-28T03:51:58;6;6;
72023;PMS5003;59889;50.700;5.440;2024-02-28T03:54:23;6;6;
72023;PMS5003;59889;50.700;5.440;2024-02-28T03:56:48;7;7;
72023;PMS5003;59889;50.700;5.440;2024-02-28T03:59:13;6;6;
72023;PMS5003;59889;50.700;5.440;2024-02-28T04:01:38;8;7;
72023;PMS5003;59889;50.700;5.440;2024-02-28T04:04:03;4;4;
72023;PMS5003;59889;50.700;5.440;2024-02-28T04:06:28;6;6;
72023;PMS5003;59889;50.700;5.440;2024-02-28T04:08:53;7;7;
72023;PMS5003;59889;50.700;5.440;2024-02-28T04:11:18;6;5;
72023;PMS5003;59889;50.700;5.440;2024-02-28T04:13:44;6;4;
72023;PMS5003;59889;50.700;5.440;2024-02-28T04:16:09;5;5;
72023;PMS5003;59889;50.700;5.440;2024-02-28T04:18:34;4;4;
72023;PMS5003;59889;50.700;5.440;2024-02-28T04:20:59;5;5;
72023;PMS5003;59889;50.700;5.440;2024-02-28T04:23:24;7;5;
72023;PMS5003;59889;50.700;5.440;2024-02-28T04:25:49;4;4;
72023;PMS5003;59889;50.700;5.440;2024-02-28T04:28:14;6;6;
72023;PMS5003;59889;50.700;5.440;2024-02-28T04:30:39;7;7;
72023;PMS5003;59889;50.700;5.440;2024-02-28T04:33:04;6;6;
72023;PMS5003;59889;50.700;5.440;2024-02-28T04:35:30;6;5;
72023;PMS5003;59889;50.700;5.440;2024-02-28T04:37:55;5;4;
72023;PMS5003;59889;50.700;5.440;2024-02-28T04:40:20;3;2;
72023;PMS5003;59889;50.700;5.440;2024-02-28T04:42:45;5;5;
72023;PMS5003;59889;50.700;5.440;2024-02-28T04:45:10;6;6;
72023;PMS5003;59889;50.700;5.440;2024-02-28T04:47:35;5;4;
72023;PMS5003;59889;50.700;5.440;2024-02-28T04:50:01;6;6;
72023;PMS5003;59889;50.700;5.440;2024-02-28T04:52:25;8;7;
72023;PMS5003;59889;50.700;5.440;2024-02-28T04:54:50;8;7;
72023;PMS5003;59889;50.700;5.440;2024-02-28T04:57:15;7;7;
72023;PMS5003;59889;50.700;5.440;2024-02-28T04:59:41;6;6;
72023;PMS5003;59889;50.700;5.440;2024-02-28T05:02:05;6;6;
72023;PMS5003;59889;50.700;5.440;2024-02-28T05:04:30;6;6;
72023;PMS5003;59889;50.700;5.440;2024-02-28T05:06:55;5;5;
72023;PMS5003;59889;50.700;5.440;2024-02-28T05:09:20;6;6;
72023;PMS5003;59889;50.700;5.440;2024-02-28T05:11:45;6;6;
72023;PMS5003;59889;50.700;5.440;2024-02-28T05:14:10;6;6;
72023;PMS5003;59889;50.700;5.440;2024-02-28T05:16:36;6;5;
72023;PMS5003;59889;50.700;5.440;2024-02-28T05:19:01;4;4;
72023;PMS5003;59889;50.700;5.440;2024-02-28T05:21:26;5;5;
72023;PMS5003;59889;50.700;5.440;2024-02-28T05:23:51;4;4;
72023;PMS5003;59889;50.700;5.440;2024-02-28T05:26:17;5;5;
72023;PMS5003;59889;50.700;5.440;2024-02-28T05:28:41;6;6;
72023;PMS5003;59889;50.700;5.440;2024-02-28T05:31:19;6;6;
72023;PMS5003;59889;50.700;5.440;2024-02-28T05:33:31;5;4;
72023;PMS5003;59889;50.700;5.440;2024-02-28T05:35:56;5;5;
72023;PMS5003;59889;50.700;5.440;2024-02-28T05:38:21;5;4;
72023;PMS5003;59889;50.700;5.440;2024-02-28T05:40:46;7;6;
72023;PMS5003;59889;50.700;5.440;2024-02-28T05:43:11;4;4;
72023;PMS5003;59889;50.700;5.440;2024-02-28T05:45:36;6;6;
72023;PMS5003;59889;50.700;5.440;2024-02-28T05:48:02;7;5;
72023;PMS5003;59889;50.700;5.440;2024-02-28T05:50:26;5;5;
72023;PMS5003;59889;50.700;5.440;2024-02-28T05:52:51;5;4;
72023;PMS5003;59889;50.700;5.440;2024-02-28T05:55:17;6;5;
72023;PMS5003;59889;50.700;5.440;2024-02-28T05:57:42;7;5;
72023;PMS5003;59889;50.700;5.440;2024-02-28T06:00:07;6;6;
72023;PMS5003;59889;50.700;5.440;2024-02-28T06:02:32;7;6;
72023;PMS5003;59889;50.700;5.440;2024-02-28T06:04:57;11;10;
72023;PMS5003;59889;50.700;5.440;2024-02-28T06:07:22;5;5;
72023;PMS5003;59889;50.700;5.440;2024-02-28T06:09:47;6;6;
72023;PMS5003;59889;50.700;5.440;2024-02-28T06:12:12;4;3;
72023;PMS5003;59889;50.700;5.440;2024-02-28T06:14:38;6;6;
72023;PMS5003;59889;50.700;5.440;2024-02-28T06:17:03;6;5;
72023;PMS5003;59889;50.700;5.440;2024-02-28T06:19:29;5;5;
72023;PMS5003;59889;50.700;5.440;2024-02-28T06:21:53;5;5;
72023;PMS5003;59889;50.700;5.440;2024-02-28T06:24:18;6;6;
72023;PMS5003;59889;50.700;5.440;2024-02-28T06:26:43;6;6;
72023;PMS5003;59889;50.700;5.440;2024-02-28T06:29:08;6;6;
72023;PMS5003;59889;50.700;5.440;2024-02-28T06:31:33;7;5;
72023;PMS5003;59889;50.700;5.440;2024-02-28T06:33:59;6;6;
72023;PMS5003;59889;50.700;5.440;2024-02-28T06:36:23;5;5;
72023;PMS5003;59889;50.700;5.440;2024-02-28T06:38:48;7;7;
72023;PMS5003;59889;50.700;5.440;2024-02-28T06:41:13;6;6;
72023;PMS5003;59889;50.700;5.440;2024-02-28T06:43:39;6;5;
72023;PMS5003;59889;50.700;5.440;2024-02-28T06:46:03;5;5;
72023;PMS5003;59889;50.700;5.440;2024-02-28T06:48:28;6;5;
72023;PMS5003;59889;50.700;5.440;2024-02-28T06:50:53;5;5;
72023;PMS5003;59889;50.700;5.440;2024-02-28T06:53:19;4;4;
72023;PMS5003;59889;50.700;5.440;2024-02-28T06:55:44;3;3;
72023;PMS5003;59889;50.700;5.440;2024-02-28T06:58:09;6;5;
72023;PMS5003;59889;50.700;5.440;2024-02-28T07:00:34;5;5;
72023;PMS5003;59889;50.700;5.440;2024-02-28T07:02:59;6;5;
72023;PMS5003;59889;50.700;5.440;2024-02-28T07:05:24;5;5;
72023;PMS5003;59889;50.700;5.440;2024-02-28T07:07:49;6;6;
72023;PMS5003;59889;50.700;5.440;2024-02-28T07:10:14;5;5;
72023;PMS5003;59889;50.700;5.440;2024-02-28T07:12:40;6;6;
72023;PMS5003;59889;50.700;5.440;2024-02-28T07:15:04;5;4;
72023;PMS5003;59889;50.700;5.440;2024-02-28T07:17:29;6;6;
72023;PMS5003;59889;50.700;5.440;2024-02-28T07:19:54;4;4;
72023;PMS5003;59889;50.700;5.440;2024-02-28T07:22:19;5;5;
72023;PMS5003;59889;50.700;5.440;2024-02-28T07:24:44;5;5;
72023;PMS5003;59889;50.700;5.440;2024-02-28T07:27:09;5;5;
72023;PMS5003;59889;50.700;5.440;2024-02-28T07:29:36;5;5;
72023;PMS5003;59889;50.700;5.440;2024-02-28T07:32:00;4;4;
72023;PMS5003;59889;50.700;5.440;2024-02-28T07:34:25;4;4;
72023;PMS5003;59889;50.700;5.440;2024-02-28T07:36:50;11;11;
72023;PMS5003;59889;50.700;5.440;2024-02-28T07:39:15;17;16;
72023;PMS5003;59889;50.700;5.440;2024-02-28T07:41:41;15;14;
72023;PMS5003;59889;50.700;5.440;2024-02-28T07:44:05;16;16;
72023;PMS5003;59889;50.700;5.440;2024-02-28T07:46:31;15;14;
72023;PMS5003;59889;50.700;5.440;2024-02-28T07:48:56;15;13;
72023;PMS5003;59889;50.700;5.440;2024-02-28T07:51:22;16;15;
72023;PMS5003;59889;50.700;5.440;2024-02-28T07:53:47;21;18;
72023;PMS5003;59889;50.700;5.440;2024-02-28T07:56:15;18;15;
72023;PMS5003;59889;50.700;5.440;2024-02-28T07:58:38;23;19;
72023;PMS5003;59889;50.700;5.440;2024-02-28T08:01:03;23;21;
72023;PMS5003;59889;50.700;5.440;2024-02-28T08:03:29;20;16;
72023;PMS5003;59889;50.700;5.440;2024-02-28T08:05:54;18;16;
72023;PMS5003;59889;50.700;5.440;2024-02-28T08:08:19;19;17;
72023;PMS5003;59889;50.700;5.440;2024-02-28T08:10:45;18;18;
72023;PMS5003;59889;50.700;5.440;2024-02-28T08:13:10;21;18;
72023;PMS5003;59889;50.700;5.440;2024-02-28T08:15:36;18;18;
72023;PMS5003;59889;50.700;5.440;2024-02-28T08:18:02;23;19;
72023;PMS5003;59889;50.700;5.440;2024-02-28T08:20:27;18;17;
72023;PMS5003;59889;50.700;5.440;2024-02-28T08:22:52;22;21;
72023;PMS5003;59889;50.700;5.440;2024-02-28T08:25:17;18;16;
72023;PMS5003;59889;50.700;5.440;2024-02-28T08:27:43;18;16;
72023;PMS5003;59889;50.700;5.440;2024-02-28T08:30:09;22;20;
72023;PMS5003;59889;50.700;5.440;2024-02-28T08:32:34;24;22;
72023;PMS5003;59889;50.700;5.440;2024-02-28T08:35:00;31;25;
72023;PMS5003;59889;50.700;5.440;2024-02-28T08:37:25;24;23;
72023;PMS5003;59889;50.700;5.440;2024-02-28T08:39:50;25;21;
72023;PMS5003;59889;50.700;5.440;2024-02-28T08:42:16;27;19;
72023;PMS5003;59889;50.700;5.440;2024-02-28T08:44:41;23;19;
72023;PMS5003;59889;50.700;5.440;2024-02-28T08:47:06;26;21;
72023;PMS5003;59889;50.700;5.440;2024-02-28T08:49:33;28;20;
72023;PMS5003;59889;50.700;5.440;2024-02-28T08:51:58;22;20;
72023;PMS5003;59889;50.700;5.440;2024-02-28T08:54:23;18;16;
72023;PMS5003;59889;50.700;5.440;2024-02-28T08:56:50;24;21;
72023;PMS5003;59889;50.700;5.440;2024-02-28T08:59:14;20;19;
72023;PMS5003;59889;50.700;5.440;2024-02-28T09:01:39;20;17;
72023;PMS5003;59889;50.700;5.440;2024-02-28T09:04:05;19;18;
72023;PMS5003;59889;50.700;5.440;2024-02-28T09:06:30;21;20;
72023;PMS5003;59889;50.700;5.440;2024-02-28T09:08:55;19;17;
72023;PMS5003;59889;50.700;5.440;2024-02-28T09:11:21;23;22;
72023;PMS5003;59889;50.700;5.440;2024-02-28T09:13:46;20;18;
72023;PMS5003;59889;50.700;5.440;2024-02-28T09:16:11;22;16;
72023;PMS5003;59889;50.700;5.440;2024-02-28T09:18:37;20;18;
72023;PMS5003;59889;50.700;5.440;2024-02-28T09:21:01;18;17;
72023;PMS5003;59889;50.700;5.440;2024-02-28T09:23:27;21;16;
72023;PMS5003;59889;50.700;5.440;2024-02-28T09:25:53;22;19;
72023;PMS5003;59889;50.700;5.440;2024-02-28T09:28:19;18;16;
72023;PMS5003;59889;50.700;5.440;2024-02-28T09:30:43;18;17;
72023;PMS5003;59889;50.700;5.440;2024-02-28T09:33:09;22;20;
72023;PMS5003;59889;50.700;5.440;2024-02-28T09:35:35;19;17;
72023;PMS5003;59889;50.700;5.440;2024-02-28T09:38:00;20;18;
72023;PMS5003;59889;50.700;5.440;2024-02-28T09:40:25;18;16;
72023;PMS5003;59889;50.700;5.440;2024-02-28T09:42:51;18;17;
72023;PMS5003;59889;50.700;5.440;2024-02-28T09:45:15;18;17;
72023;PMS5003;59889;50.700;5.440;2024-02-28T09:47:40;15;14;
72023;PMS5003;59889;50.700;5.440;2024-02-28T09:50:06;19;17;
72023;PMS5003;59889;50.700;5.440;2024-02-28T09:52:32;19;18;
72023;PMS5003;59889;50.700;5.440;2024-02-28T09:54:57;18;16;
72023;PMS5003;59889;50.700;5.440;2024-02-28T09:57:23;17;17;
72023;PMS5003;59889;50.700;5.440;2024-02-28T09:59:48;20;18;
72023;PMS5003;59889;50.700;5.440;2024-02-28T10:02:13;17;15;
72023;PMS5003;59889;50.700;5.440;2024-02-28T10:04:39;20;19;
72023;PMS5003;59889;50.700;5.440;2024-02-28T10:07:10;20;17;
72023;PMS5003;59889;50.700;5.440;2024-02-28T10:09:30;22;18;
72023;PMS5003;59889;50.700;5.440;2024-02-28T10:11:55;19;16;
72023;PMS5003;59889;50.700;5.440;2024-02-28T10:14:21;20;16;
72023;PMS5003;59889;50.700;5.440;2024-02-28T10:16:46;16;15;
72023;PMS5003;59889;50.700;5.440;2024-02-28T10:19:11;17;15;
72023;PMS5003;59889;50.700;5.440;2024-02-28T10:21:36;17;17;
72023;PMS5003;59889;50.700;5.440;2024-02-28T10:24:02;19;16;
72023;PMS5003;59889;50.700;5.440;2024-02-28T10:26:27;20;16;
72023;PMS5003;59889;50.700;5.440;2024-02-28T10:28:53;18;18;
72023;PMS5003;59889;50.700;5.440;2024-02-28T10:31:18;22;20;
72023;PMS5003;59889;50.700;5.440;2024-02-28T10:33:43;18;16;
72023;PMS5003;59889;50.700;5.440;2024-02-28T10:36:09;20;16;
72023;PMS5003;59889;50.700;5.440;2024-02-28T10:38:34;15;15;
72023;PMS5003;59889;50.700;5.440;2024-02-28T10:41:00;20;18;
72023;PMS5003;59889;50.700;5.440;2024-02-28T10:43:24;16;14;
72023;PMS5003;59889;50.700;5.440;2024-02-28T10:45:49;18;15;
72023;PMS5003;59889;50.700;5.440;2024-02-28T10:48:15;15;13;
72023;PMS5003;59889;50.700;5.440;2024-02-28T10:50:40;15;14;
72023;PMS5003;59889;50.700;5.440;2024-02-28T10:53:05;14;14;
72023;PMS5003;59889;50.700;5.440;2024-02-28T10:55:32;17;13;
72023;PMS5003;59889;50.700;5.440;2024-02-28T10:57:58;19;15;
72023;PMS5003;59889;50.700;5.440;2024-02-28T11:00:21;16;15;
72023;PMS5003;59889;50.700;5.440;2024-02-28T11:02:46;14;12;
72023;PMS5003;59889;50.700;5.440;2024-02-28T11:05:11;16;14;
72023;PMS5003;59889;50.700;5.440;2024-02-28T11:07:40;14;14;
72023;PMS5003;59889;50.700;5.440;2024-02-28T11:10:04;18;16;
72023;PMS5003;59889;50.700;5.440;2024-02-28T11:12:28;17;14;
72023;PMS5003;59889;50.700;5.440;2024-02-28T11:14:57;20;18;
72023;PMS5003;59889;50.700;5.440;2024-02-28T11:17:18;15;15;
72023;PMS5003;59889;50.700;5.440;2024-02-28T11:19:44;17;16;
72023;PMS5003;59889;50.700;5.440;2024-02-28T11:22:09;19;15;
72023;PMS5003;59889;50.700;5.440;2024-02-28T11:24:34;14;13;
72023;PMS5003;59889;50.700;5.440;2024-02-28T11:26:59;15;13;
72023;PMS5003;59889;50.700;5.440;2024-02-28T11:29:25;17;15;
72023;PMS5003;59889;50.700;5.440;2024-02-28T11:31:50;17;15;
72023;PMS5003;59889;50.700;5.440;2024-02-28T11:34:15;14;13;
72023;PMS5003;59889;50.700;5.440;2024-02-28T11:36:40;15;14;
72023;PMS5003;59889;50.700;5.440;2024-02-28T11:39:05;13;13;
72023;PMS5003;59889;50.700;5.440;2024-02-28T11:41:31;13;12;
72023;PMS5003;59889;50.700;5.440;2024-02-28T11:43:56;13;12;
72023;PMS5003;59889;50.700;5.440;2024-02-28T11:46:22;13;12;
72023;PMS5003;59889;50.700;5.440;2024-02-28T11:48:47;11;10;
72023;PMS5003;59889;50.700;5.440;2024-02-28T11:51:13;12;12;
72023;PMS5003;59889;50.700;5.440;2024-02-28T11:53:39;14;12;
72023;PMS5003;59889;50.700;5.440;2024-02-28T11:56:04;12;11;
72023;PMS5003;59889;50.700;5.440;2024-02-28T11:58:29;13;12;
72023;PMS5003;59889;50.700;5.440;2024-02-28T12:00:54;8;8;
72023;PMS5003;59889;50.700;5.440;2024-02-28T12:03:21;10;9;
72023;PMS5003;59889;50.700;5.440;2024-02-28T12:05:45;10;9;
72023;PMS5003;59889;50.700;5.440;2024-02-28T12:08:10;12;11;
72023;PMS5003;59889;50.700;5.440;2024-02-28T12:10:35;10;9;
72023;PMS5003;59889;50.700;5.440;2024-02-28T12:13:01;10;9;
72023;PMS5003;59889;50.700;5.440;2024-02-28T12:15:28;12;12;
72023;PMS5003;59889;50.700;5.440;2024-02-28T12:17:52;11;10;
72023;PMS5003;59889;50.700;5.440;2024-02-28T12:20:16;10;9;
72023;PMS5003;59889;50.700;5.440;2024-02-28T12:22:41;11;10;
72023;PMS5003;59889;50.700;5.440;2024-02-28T12:25:06;9;9;
72023;PMS5003;59889;50.700;5.440;2024-02-28T12:27:31;12;11;
72023;PMS5003;59889;50.700;5.440;2024-02-28T12:29:56;8;8;
72023;PMS5003;59889;50.700;5.440;2024-02-28T12:32:22;7;7;
72023;PMS5003;59889;50.700;5.440;2024-02-28T12:34:47;10;10;
72023;PMS5003;59889;50.700;5.440;2024-02-28T12:37:12;11;10;
72023;PMS5003;59889;50.700;5.440;2024-02-28T12:39:37;10;10;
72023;PMS5003;59889;50.700;5.440;2024-02-28T12:42:02;11;10;
72023;PMS5003;59889;50.700;5.440;2024-02-28T12:44:27;11;10;
72023;PMS5003;59889;50.700;5.440;2024-02-28T12:46:53;8;8;
72023;PMS5003;59889;50.700;5.440;2024-02-28T12:49:18;9;9;
72023;PMS5003;59889;50.700;5.440;2024-02-28T12:51:43;9;8;
72023;PMS5003;59889;50.700;5.440;2024-02-28T12:54:08;9;9;
72023;PMS5003;59889;50.700;5.440;2024-02-28T12:56:33;9;8;
72023;PMS5003;59889;50.700;5.440;2024-02-28T12:58:58;9;9;
72023;PMS5003;59889;50.700;5.440;2024-02-28T13:01:23;8;7;
72023;PMS5003;59889;50.700;5.440;2024-02-28T13:03:49;7;7;
72023;PMS5003;59889;50.700;5.440;2024-02-28T13:06:13;8;8;
72023;PMS5003;59889;50.700;5.440;2024-02-28T13:08:38;8;7;
72023;PMS5003;59889;50.700;5.440;2024-02-28T13:11:03;8;7;
72023;PMS5003;59889;50.700;5.440;2024-02-28T13:13:28;8;7;
72023;PMS5003;59889;50.700;5.440;2024-02-28T13:15:53;7;7;
72023;PMS5003;59889;50.700;5.440;2024-02-28T13:18:18;9;8;
72023;PMS5003;59889;50.700;5.440;2024-02-28T13:20:44;7;6;
72023;PMS5003;59889;50.700;5.440;2024-02-28T13:23:08;8;7;
72023;PMS5003;59889;50.700;5.440;2024-02-28T13:25:34;7;7;
72023;PMS5003;59889;50.700;5.440;2024-02-28T13:27:59;6;6;
72023;PMS5003;59889;50.700;5.440;2024-02-28T13:30:24;7;7;
72023;PMS5003;59889;50.700;5.440;2024-02-28T13:32:49;7;6;
72023;PMS5003;59889;50.700;5.440;2024-02-28T13:35:14;8;8;
72023;PMS5003;59889;50.700;5.440;2024-02-28T13:37:39;8;8;
72023;PMS5003;59889;50.700;5.440;2024-02-28T13:40:04;6;6;
72023;PMS5003;59889;50.700;5.440;2024-02-28T13:42:29;7;6;
72023;PMS5003;59889;50.700;5.440;2024-02-28T13:44:54;6;6;
72023;PMS5003;59889;50.700;5.440;2024-02-28T13:47:19;7;6;
72023;PMS5003;59889;50.700;5.440;2024-02-28T13:49:45;5;5;
72023;PMS5003;59889;50.700;5.440;2024-02-28T13:52:10;6;6;
72023;PMS5003;59889;50.700;5.440;2024-02-28T13:54:34;7;7;
72023;PMS5003;59889;50.700;5.440;2024-02-28T13:56:59;9;8;
72023;PMS5003;59889;50.700;5.440;2024-02-28T13:59:24;6;6;
72023;PMS5003;59889;50.700;5.440;2024-02-28T14:01:49;6;6;
72023;PMS5003;59889;50.700;5.440;2024-02-28T14:04:15;5;5;
72023;PMS5003;59889;50.700;5.440;2024-02-28T14:06:39;8;7;
72023;PMS5003;59889;50.700;5.440;2024-02-28T14:09:05;6;6;
72023;PMS5003;59889;50.700;5.440;2024-02-28T14:11:30;7;6;
72023;PMS5003;59889;50.700;5.440;2024-02-28T14:13:55;5;5;
72023;PMS5003;59889;50.700;5.440;2024-02-28T14:16:20;7;7;
72023;PMS5003;59889;50.700;5.440;2024-02-28T14:18:45;5;5;
72023;PMS5003;59889;50.700;5.440;2024-02-28T14:21:10;6;6;
72023;PMS5003;59889;50.700;5.440;2024-02-28T14:23:35;6;5;
72023;PMS5003;59889;50.700;5.440;2024-02-28T14:26:00;6;6;
72023;PMS5003;59889;50.700;5.440;2024-02-28T14:28:26;8;7;
72023;PMS5003;59889;50.700;5.440;2024-02-28T14:30:50;5;5;
72023;PMS5003;59889;50.700;5.440;2024-02-28T14:33:15;5;5;
72023;PMS5003;59889;50.700;5.440;2024-02-28T14:35:40;5;5;
72023;PMS5003;59889;50.700;5.440;2024-02-28T14:38:05;6;6;
72023;PMS5003;59889;50.700;5.440;2024-02-28T14:40:30;8;8;
72023;PMS5003;59889;50.700;5.440;2024-02-28T14:42:55;4;4;
72023;PMS5003;59889;50.700;5.440;2024-02-28T14:45:21;10;8;
72023;PMS5003;59889;50.700;5.440;2024-02-28T14:47:46;5;5;
72023;PMS5003;59889;50.700;5.440;2024-02-28T14:50:11;6;5;
72023;PMS5003;59889;50.700;5.440;2024-02-28T14:52:36;8;8;
72023;PMS5003;59889;50.700;5.440;2024-02-28T14:55:01;8;8;
72023;PMS5003;59889;50.700;5.440;2024-02-28T14:57:26;7;7;
72023;PMS5003;59889;50.700;5.440;2024-02-28T14:59:52;5;5;
72023;PMS5003;59889;50.700;5.440;2024-02-28T15:02:17;6;6;
72023;PMS5003;59889;50.700;5.440;2024-02-28T15:04:42;6;6;
72023;PMS5003;59889;50.700;5.440;2024-02-28T15:07:07;8;7;
72023;PMS5003;59889;50.700;5.440;2024-02-28T15:09:32;7;6;
72023;PMS5003;59889;50.700;5.440;2024-02-28T15:11:57;5;5;
72023;PMS5003;59889;50.700;5.440;2024-02-28T15:14:22;3;3;
72023;PMS5003;59889;50.700;5.440;2024-02-28T15:16:47;5;4;
72023;PMS5003;59889;50.700;5.440;2024-02-28T15:19:12;7;6;
72023;PMS5003;59889;50.700;5.440;2024-02-28T15:21:37;6;6;
72023;PMS5003;59889;50.700;5.440;2024-02-28T15:24:02;5;5;
72023;PMS5003;59889;50.700;5.440;2024-02-28T15:26:27;5;4;
72023;PMS5003;59889;50.700;5.440;2024-02-28T15:28:52;6;5;
72023;PMS5003;59889;50.700;5.440;2024-02-28T15:31:17;5;5;
72023;PMS5003;59889;50.700;5.440;2024-02-28T15:33:42;6;6;
72023;PMS5003;59889;50.700;5.440;2024-02-28T15:36:08;6;6;
72023;PMS5003;59889;50.700;5.440;2024-02-28T15:38:32;9;5;
72023;PMS5003;59889;50.700;5.440;2024-02-28T15:40:58;5;4;
72023;PMS5003;59889;50.700;5.440;2024-02-28T15:43:23;6;6;
72023;PMS5003;59889;50.700;5.440;2024-02-28T15:45:48;6;5;
72023;PMS5003;59889;50.700;5.440;2024-02-28T15:48:13;4;4;
72023;PMS5003;59889;50.700;5.440;2024-02-28T15:50:38;6;5;
72023;PMS5003;59889;50.700;5.440;2024-02-28T15:53:03;5;5;
72023;PMS5003;59889;50.700;5.440;2024-02-28T15:55:28;4;4;
72023;PMS5003;59889;50.700;5.440;2024-02-28T15:57:53;5;5;
72023;PMS5003;59889;50.700;5.440;2024-02-28T16:00:18;6;6;
72023;PMS5003;59889;50.700;5.440;2024-02-28T16:02:44;4;4;
72023;PMS5003;59889;50.700;5.440;2024-02-28T16:05:08;5;5;
72023;PMS5003;59889;50.700;5.440;2024-02-28T16:07:33;5;4;
72023;PMS5003;59889;50.700;5.440;2024-02-28T16:09:58;3;3;
72023;PMS5003;59889;50.700;5.440;2024-02-28T16:12:23;6;6;
72023;PMS5003;59889;50.700;5.440;2024-02-28T16:14:48;6;5;
72023;PMS5003;59889;50.700;5.440;2024-02-28T16:17:13;5;4;
72023;PMS5003;59889;50.700;5.440;2024-02-28T16:19:38;5;5;
72023;PMS5003;59889;50.700;5.440;2024-02-28T16:22:04;6;5;
72023;PMS5003;59889;50.700;5.440;2024-02-28T16:24:29;5;5;
72023;PMS5003;59889;50.700;5.440;2024-02-28T16:26:55;5;5;